Time;durP1;ratioP1;P1;durP2;ratioP2;P2;SDS_P1;SDS_P2;PMS_P1;PMS_P2;Temp;Humidity;BMP_temperature;BMP_pressure;BME280_temperature;BME280_humidity;BME280_pressure;Samples;Min_cycle;Max_cycle;Signal;HPM_P1;HPM_P2
2023/12/16 00:00:15;;;;;;;19.58;3.47;;;;;;;;;;5030789;28;25093;-70
2023/12/16 00:02:41;;;;;;;19.15;4.35;;;;;;;;;;5030890;28;25067;-70
2023/12/16 00:05:08;;;;;;;26.45;4.30;;;;;;;;;;5028174;28;25098;-71
2023/12/16 00:07:34;;;;;;;15.90;4.57;;;;;;;;;;5030973;28;25086;-71
2023/12/16 00:10:00;;;;;;;16.23;4.18;;;;;;;;;;5023133;28;25135;-70
2023/12/16 00:12:26;;;;;;;17.33;4.00;;;;;;;;;;5027739;28;25107;-69
2023/12/16 00:14:52;;;;;;;18.17;3.90;;;;;;;;;;5030945;28;25066;-70
2023/12/16 00:17:18;;;;;;;20.33;4.13;;;;;;;;;;5032276;28;25143;-69
2023/12/16 00:19:45;;;;;;;18.17;4.10;;;;;;;;;;5028529;28;25056;-70
2023/12/16 00:22:11;;;;;;;21.17;3.92;;;;;;;;;;5030844;28;25064;-69
2023/12/16 00:24:37;;;;;;;17.10;3.75;;;;;;;;;;5030164;28;25074;-71
2023/12/16 00:27:03;;;;;;;18.40;3.90;;;;;;;;;;5028882;28;25053;-69
2023/12/16 00:29:29;;;;;;;22.83;4.95;;;;;;;;;;5030994;28;25061;-69
2023/12/16 00:31:55;;;;;;;18.00;4.60;;;;;;;;;;5032005;28;25063;-69
2023/12/16 00:34:20;;;;;;;15.07;4.97;;;;;;;;;;5035896;28;25054;-70
2023/12/16 00:36:48;;;;;;;19.25;4.35;;;;;;;;;;5034051;28;25066;-69
2023/12/16 00:39:14;;;;;;;21.15;4.55;;;;;;;;;;5038464;28;25049;-70
2023/12/16 00:41:40;;;;;;;16.25;4.25;;;;;;;;;;5036189;28;25088;-69
2023/12/16 00:44:06;;;;;;;14.05;4.10;;;;;;;;;;5036888;28;25058;-69
2023/12/16 00:46:32;;;;;;;20.38;4.70;;;;;;;;;;5031671;28;25064;-69
2023/12/16 00:48:59;;;;;;;22.58;5.28;;;;;;;;;;5035930;28;25060;-69
2023/12/16 00:51:25;;;;;;;26.58;5.70;;;;;;;;;;5034271;28;25079;-70
2023/12/16 00:53:51;;;;;;;22.77;6.30;;;;;;;;;;5036390;28;25057;-71
2023/12/16 00:56:17;;;;;;;26.75;6.30;;;;;;;;;;5031956;28;25068;-70
2023/12/16 00:58:43;;;;;;;23.27;5.15;;;;;;;;;;5034287;28;25116;-70
2023/12/16 01:01:09;;;;;;;15.57;5.50;;;;;;;;;;5032566;28;25052;-69
2023/12/16 01:03:37;;;;;;;14.85;4.60;;;;;;;;;;5031285;28;25065;-71
2023/12/16 01:06:03;;;;;;;17.17;5.45;;;;;;;;;;5030582;28;25069;-70
2023/12/16 01:08:30;;;;;;;18.30;5.70;;;;;;;;;;5031850;28;25070;-71
2023/12/16 01:10:56;;;;;;;21.13;5.90;;;;;;;;;;5025793;28;25081;-69
2023/12/16 01:13:22;;;;;;;19.30;6.07;;;;;;;;;;5031694;28;25166;-69
2023/12/16 01:15:50;;;;;;;18.48;4.97;;;;;;;;;;5028977;28;25065;-71
2023/12/16 01:18:16;;;;;;;20.55;5.90;;;;;;;;;;5029536;28;25069;-70
2023/12/16 01:20:42;;;;;;;27.50;6.45;;;;;;;;;;5029078;28;25097;-70
2023/12/16 01:23:09;;;;;;;17.20;6.18;;;;;;;;;;5030357;28;25080;-69
2023/12/16 01:25:35;;;;;;;25.05;6.22;;;;;;;;;;5029349;28;25139;-68
2023/12/16 01:28:01;;;;;;;22.25;6.40;;;;;;;;;;5030933;28;25060;-69
2023/12/16 01:30:29;;;;;;;21.75;6.45;;;;;;;;;;5025741;28;25070;-69
2023/12/16 01:32:54;;;;;;;25.55;6.63;;;;;;;;;;5031334;28;25129;-68
2023/12/16 01:35:21;;;;;;;26.77;7.13;;;;;;;;;;5029121;28;25056;-70
2023/12/16 01:37:47;;;;;;;22.10;6.55;;;;;;;;;;5029467;28;25064;-69
2023/12/16 01:40:13;;;;;;;23.40;6.97;;;;;;;;;;5027280;28;25094;-69
2023/12/16 01:42:39;;;;;;;18.83;6.55;;;;;;;;;;5030881;28;25076;-68
2023/12/16 01:45:05;;;;;;;23.88;5.80;;;;;;;;;;5029095;28;25105;-69
2023/12/16 01:47:32;;;;;;;19.48;6.72;;;;;;;;;;5031258;28;25045;-71
2023/12/16 01:49:58;;;;;;;17.30;6.35;;;;;;;;;;5029685;28;25072;-69
2023/12/16 01:52:24;;;;;;;21.88;6.90;;;;;;;;;;5027368;28;25061;-70
2023/12/16 01:54:50;;;;;;;26.33;6.75;;;;;;;;;;5027320;28;25112;-69
2023/12/16 01:57:16;;;;;;;23.70;6.93;;;;;;;;;;5027841;28;25071;-68
2023/12/16 01:59:42;;;;;;;22.65;7.97;;;;;;;;;;5029350;28;25076;-69
2023/12/16 02:02:08;;;;;;;23.70;6.43;;;;;;;;;;5026725;28;25071;-68
2023/12/16 02:04:35;;;;;;;21.58;7.13;;;;;;;;;;5031745;28;25070;-71
2023/12/16 02:07:01;;;;;;;26.75;7.40;;;;;;;;;;5031021;28;25095;-70
2023/12/16 02:09:27;;;;;;;18.67;6.63;;;;;;;;;;5032186;28;25087;-69
2023/12/16 02:11:54;;;;;;;23.35;7.13;;;;;;;;;;5034304;28;25100;-70
2023/12/16 02:14:20;;;;;;;20.13;6.43;;;;;;;;;;5035195;28;25068;-69
2023/12/16 02:16:46;;;;;;;17.50;6.95;;;;;;;;;;5030174;28;25073;-71
2023/12/16 02:19:16;;;;;;;27.27;7.93;;;;;;;;;;5034197;28;25143;-71
2023/12/16 02:21:42;;;;;;;30.23;8.60;;;;;;;;;;5028345;28;25067;-69
2023/12/16 02:24:10;;;;;;;23.60;6.72;;;;;;;;;;5033562;28;25071;-69
2023/12/16 02:26:36;;;;;;;27.98;8.48;;;;;;;;;;5028832;28;25087;-69
2023/12/16 02:29:01;;;;;;;30.45;7.57;;;;;;;;;;5035438;28;25079;-70
2023/12/16 02:31:28;;;;;;;24.13;6.70;;;;;;;;;;5031188;28;25855;-69
2023/12/16 02:33:54;;;;;;;20.15;6.70;;;;;;;;;;5034192;28;25064;-69
2023/12/16 02:36:20;;;;;;;20.05;6.55;;;;;;;;;;5025307;28;25050;-69
2023/12/16 02:38:46;;;;;;;21.90;6.57;;;;;;;;;;5031096;28;25117;-69
2023/12/16 02:41:13;;;;;;;25.08;7.25;;;;;;;;;;5032300;28;25075;-69
2023/12/16 02:43:39;;;;;;;22.25;7.50;;;;;;;;;;5032318;28;25135;-69
2023/12/16 02:46:05;;;;;;;17.27;6.78;;;;;;;;;;5033990;28;25055;-69
2023/12/16 02:48:31;;;;;;;22.13;7.10;;;;;;;;;;5034225;28;25077;-70
2023/12/16 02:50:57;;;;;;;22.15;6.90;;;;;;;;;;5031794;28;25090;-68
2023/12/16 02:53:23;;;;;;;22.30;6.70;;;;;;;;;;5032077;28;25060;-69
2023/12/16 02:55:49;;;;;;;28.38;8.32;;;;;;;;;;5029146;28;25066;-70
2023/12/16 02:58:15;;;;;;;27.73;7.45;;;;;;;;;;5031892;28;25049;-69
2023/12/16 03:00:41;;;;;;;25.83;7.20;;;;;;;;;;5032441;28;25147;-69
2023/12/16 03:03:07;;;;;;;29.00;7.18;;;;;;;;;;5030887;28;25077;-69
2023/12/16 03:05:33;;;;;;;27.98;7.15;;;;;;;;;;5026056;28;25065;-69
2023/12/16 03:07:59;;;;;;;28.92;7.90;;;;;;;;;;5025864;28;25088;-69
2023/12/16 03:10:25;;;;;;;30.92;7.95;;;;;;;;;;5026330;28;25058;-69
2023/12/16 03:12:51;;;;;;;22.50;7.25;;;;;;;;;;5028622;28;25144;-72
2023/12/16 03:15:17;;;;;;;25.52;6.68;;;;;;;;;;5031748;28;25061;-70
2023/12/16 03:17:43;;;;;;;24.17;7.18;;;;;;;;;;5028257;28;25099;-69
2023/12/16 03:20:10;;;;;;;28.02;7.57;;;;;;;;;;5030474;28;25102;-70
2023/12/16 03:22:36;;;;;;;27.30;7.13;;;;;;;;;;5032642;28;25107;-70
2023/12/16 03:25:02;;;;;;;30.90;8.10;;;;;;;;;;5029165;28;25053;-69
2023/12/16 03:27:28;;;;;;;25.20;7.88;;;;;;;;;;5028904;28;25138;-69
2023/12/16 03:29:54;;;;;;;25.50;7.85;;;;;;;;;;5031706;28;25059;-70
2023/12/16 03:32:20;;;;;;;26.15;8.45;;;;;;;;;;5032193;28;25056;-69
2023/12/16 03:34:46;;;;;;;25.73;8.60;;;;;;;;;;5028966;28;25153;-70
2023/12/16 03:37:12;;;;;;;23.10;7.82;;;;;;;;;;5028305;28;25070;-70
2023/12/16 03:39:40;;;;;;;26.13;8.30;;;;;;;;;;5031341;28;25158;-70
2023/12/16 03:42:06;;;;;;;30.67;7.78;;;;;;;;;;5028287;28;25076;-70
2023/12/16 03:44:32;;;;;;;30.52;7.97;;;;;;;;;;5031122;28;25063;-69
2023/12/16 03:46:58;;;;;;;25.17;8.30;;;;;;;;;;5030125;28;25048;-68
2023/12/16 03:49:24;;;;;;;34.35;8.63;;;;;;;;;;5031312;28;25055;-69
2023/12/16 03:51:50;;;;;;;19.45;7.03;;;;;;;;;;5030292;28;25083;-70
2023/12/16 03:54:17;;;;;;;26.83;7.40;;;;;;;;;;5025340;28;25062;-70
2023/12/16 03:56:43;;;;;;;30.33;7.90;;;;;;;;;;5032641;28;25085;-69
2023/12/16 03:59:09;;;;;;;35.08;8.13;;;;;;;;;;5037407;28;25139;-70
2023/12/16 04:01:35;;;;;;;25.85;7.97;;;;;;;;;;5031551;28;25066;-69
2023/12/16 04:04:01;;;;;;;28.15;7.85;;;;;;;;;;5030448;28;25074;-70
2023/12/16 04:06:27;;;;;;;29.95;8.48;;;;;;;;;;5030314;28;25080;-69
2023/12/16 04:08:53;;;;;;;28.85;7.82;;;;;;;;;;5030677;28;25093;-70
2023/12/16 04:11:19;;;;;;;26.83;7.55;;;;;;;;;;5027079;28;25149;-70
2023/12/16 04:13:45;;;;;;;26.50;8.50;;;;;;;;;;5028878;28;25100;-69
2023/12/16 04:16:11;;;;;;;34.25;8.63;;;;;;;;;;5030408;28;25130;-69
2023/12/16 04:18:37;;;;;;;26.80;7.80;;;;;;;;;;5029152;28;25087;-69
2023/12/16 04:21:03;;;;;;;31.35;8.43;;;;;;;;;;5029609;28;25119;-69
2023/12/16 04:23:29;;;;;;;33.30;8.20;;;;;;;;;;5031336;28;25071;-70
2023/12/16 04:25:55;;;;;;;23.85;7.50;;;;;;;;;;5027862;28;25051;-70
2023/12/16 04:28:21;;;;;;;30.52;8.15;;;;;;;;;;5032519;28;25054;-69
2023/12/16 04:30:47;;;;;;;30.08;7.25;;;;;;;;;;5032503;28;25073;-69
2023/12/16 04:33:13;;;;;;;33.72;8.80;;;;;;;;;;5036041;28;25067;-69
2023/12/16 04:35:39;;;;;;;27.25;7.00;;;;;;;;;;5027415;28;25184;-68
2023/12/16 04:38:05;;;;;;;27.35;7.85;;;;;;;;;;5032645;28;25064;-69
2023/12/16 04:40:31;;;;;;;27.05;7.53;;;;;;;;;;5029114;28;25072;-70
2023/12/16 04:42:57;;;;;;;31.02;7.65;;;;;;;;;;5031634;28;25087;-69
2023/12/16 04:45:23;;;;;;;23.83;7.50;;;;;;;;;;5029916;28;25142;-70
2023/12/16 04:47:49;;;;;;;28.08;7.32;;;;;;;;;;5029904;28;25060;-71
2023/12/16 04:50:15;;;;;;;33.80;8.13;;;;;;;;;;5026652;28;25093;-69
2023/12/16 04:52:41;;;;;;;26.52;7.82;;;;;;;;;;5032075;28;25055;-70
2023/12/16 04:55:07;;;;;;;32.13;8.55;;;;;;;;;;5029607;28;25119;-70
2023/12/16 04:57:33;;;;;;;27.58;7.82;;;;;;;;;;5031243;28;25103;-70
2023/12/16 04:59:59;;;;;;;30.80;9.00;;;;;;;;;;5029151;28;25067;-70
2023/12/16 05:02:25;;;;;;;26.85;7.68;;;;;;;;;;5030317;28;25061;-69
2023/12/16 05:04:51;;;;;;;25.00;7.03;;;;;;;;;;5031143;28;25059;-69
2023/12/16 05:07:17;;;;;;;26.55;8.18;;;;;;;;;;5030462;28;25069;-69
2023/12/16 05:09:43;;;;;;;29.73;7.70;;;;;;;;;;5027092;28;25166;-69
2023/12/16 05:12:09;;;;;;;36.40;7.60;;;;;;;;;;5033546;28;25081;-70
2023/12/16 05:14:35;;;;;;;31.80;8.32;;;;;;;;;;5029938;28;25051;-69
2023/12/16 05:17:01;;;;;;;27.10;7.75;;;;;;;;;;5025875;28;25060;-70
2023/12/16 05:19:27;;;;;;;30.00;8.40;;;;;;;;;;5029969;28;25081;-69
2023/12/16 05:21:53;;;;;;;30.90;8.07;;;;;;;;;;5030333;28;25094;-71
2023/12/16 05:24:20;;;;;;;24.10;7.18;;;;;;;;;;5029831;28;25066;-70
2023/12/16 05:26:46;;;;;;;29.50;8.07;;;;;;;;;;5027867;28;25084;-70
2023/12/16 05:29:12;;;;;;;25.25;7.75;;;;;;;;;;5029431;28;25075;-71
2023/12/16 05:31:38;;;;;;;38.97;7.32;;;;;;;;;;5032187;28;25143;-70
2023/12/16 05:34:04;;;;;;;35.30;8.32;;;;;;;;;;5030509;28;25071;-70
2023/12/16 05:36:30;;;;;;;21.88;6.93;;;;;;;;;;5027296;28;25095;-69
2023/12/16 05:38:56;;;;;;;30.50;7.30;;;;;;;;;;5031104;28;25075;-70
2023/12/16 05:41:22;;;;;;;32.17;7.30;;;;;;;;;;5031819;28;25146;-69
2023/12/16 05:43:48;;;;;;;27.52;7.38;;;;;;;;;;5029907;28;25069;-70
2023/12/16 05:46:14;;;;;;;27.95;7.50;;;;;;;;;;5026069;28;25060;-70
2023/12/16 05:48:40;;;;;;;19.10;6.60;;;;;;;;;;5027831;28;25060;-70
2023/12/16 05:51:06;;;;;;;27.80;8.10;;;;;;;;;;5031940;28;25073;-69
2023/12/16 05:53:37;;;;;;;29.65;7.53;;;;;;;;;;5024590;28;25097;-70
2023/12/16 05:56:06;;;;;;;33.15;7.45;;;;;;;;;;5021935;28;25057;-69
2023/12/16 05:58:32;;;;;;;28.25;6.55;;;;;;;;;;5027587;28;25103;-71
2023/12/16 06:00:58;;;;;;;26.13;6.80;;;;;;;;;;5030154;28;25086;-69
2023/12/16 06:03:24;;;;;;;30.38;6.68;;;;;;;;;;5031585;28;25059;-69
2023/12/16 06:05:51;;;;;;;34.00;7.97;;;;;;;;;;5033951;28;25086;-68
2023/12/16 06:08:16;;;;;;;36.47;7.43;;;;;;;;;;5028918;28;25081;-70
2023/12/16 06:10:42;;;;;;;33.47;7.35;;;;;;;;;;5031270;28;25059;-70
2023/12/16 06:13:09;;;;;;;30.00;7.20;;;;;;;;;;5030634;28;25097;-70
2023/12/16 06:15:34;;;;;;;28.05;7.90;;;;;;;;;;5027118;28;25135;-71
2023/12/16 06:18:03;;;;;;;33.17;6.80;;;;;;;;;;5024518;28;25097;-70
2023/12/16 06:20:30;;;;;;;32.72;7.28;;;;;;;;;;5027375;28;25063;-71
2023/12/16 06:22:56;;;;;;;34.03;7.43;;;;;;;;;;5017761;28;25080;-71
2023/12/16 06:25:21;;;;;;;35.20;7.25;;;;;;;;;;5034241;28;25125;-70
2023/12/16 06:27:47;;;;;;;35.30;7.22;;;;;;;;;;5032279;28;25116;-70
2023/12/16 06:30:14;;;;;;;27.45;7.13;;;;;;;;;;5027606;28;25056;-70
2023/12/16 06:32:40;;;;;;;32.20;7.78;;;;;;;;;;5031694;28;25147;-70
2023/12/16 06:35:06;;;;;;;28.80;8.65;;;;;;;;;;5030443;28;25078;-69
2023/12/16 06:37:32;;;;;;;31.85;7.65;;;;;;;;;;5025631;28;25066;-70
2023/12/16 06:39:58;;;;;;;23.00;6.95;;;;;;;;;;5028829;28;25072;-70
2023/12/16 06:42:24;;;;;;;32.38;6.97;;;;;;;;;;5032157;28;25061;-70
2023/12/16 06:44:50;;;;;;;24.75;6.85;;;;;;;;;;5027612;28;25064;-71
2023/12/16 06:47:16;;;;;;;33.92;7.88;;;;;;;;;;5028060;28;25085;-70
2023/12/16 06:49:42;;;;;;;31.23;7.70;;;;;;;;;;5022378;28;25069;-71
2023/12/16 06:52:08;;;;;;;35.15;7.85;;;;;;;;;;5030337;28;25073;-73
2023/12/16 06:54:34;;;;;;;27.35;7.70;;;;;;;;;;5033095;28;25057;-71
2023/12/16 06:57:00;;;;;;;30.92;7.95;;;;;;;;;;5033356;28;25049;-70
2023/12/16 06:59:26;;;;;;;27.15;8.75;;;;;;;;;;5025111;28;25077;-70
2023/12/16 07:01:51;;;;;;;31.88;7.38;;;;;;;;;;5031682;28;25071;-70
2023/12/16 07:04:17;;;;;;;23.42;7.13;;;;;;;;;;5034855;28;25092;-70
2023/12/16 07:06:43;;;;;;;29.27;7.80;;;;;;;;;;5026595;28;25075;-71
2023/12/16 07:09:09;;;;;;;24.55;8.35;;;;;;;;;;5028210;28;25081;-71
2023/12/16 07:11:35;;;;;;;28.80;7.63;;;;;;;;;;5028047;28;25051;-70
2023/12/16 07:14:01;;;;;;;34.40;8.82;;;;;;;;;;5027180;28;25128;-70
2023/12/16 07:16:30;;;;;;;31.88;8.13;;;;;;;;;;5033323;28;25150;-70
2023/12/16 07:18:58;;;;;;;36.78;9.20;;;;;;;;;;5036054;28;25053;-69
2023/12/16 07:21:24;;;;;;;34.90;8.20;;;;;;;;;;5034723;28;25072;-68
2023/12/16 07:23:50;;;;;;;28.83;8.02;;;;;;;;;;5035172;28;25072;-70
2023/12/16 07:26:16;;;;;;;36.60;8.18;;;;;;;;;;5036941;28;25070;-70
2023/12/16 07:28:42;;;;;;;37.53;8.25;;;;;;;;;;5032476;28;25075;-71
2023/12/16 07:31:08;;;;;;;34.15;8.15;;;;;;;;;;5035575;28;25075;-70
2023/12/16 07:33:37;;;;;;;33.20;8.10;;;;;;;;;;5028752;28;25077;-70
2023/12/16 07:36:03;;;;;;;28.45;7.80;;;;;;;;;;5031475;28;25071;-71
2023/12/16 07:38:29;;;;;;;26.73;7.30;;;;;;;;;;5036488;28;25145;-71
2023/12/16 07:40:55;;;;;;;31.05;8.82;;;;;;;;;;5034521;28;25062;-70
2023/12/16 07:43:21;;;;;;;28.70;7.13;;;;;;;;;;5033609;28;25075;-69
2023/12/16 07:45:47;;;;;;;29.52;8.65;;;;;;;;;;5034816;28;25060;-69
2023/12/16 07:48:13;;;;;;;24.73;7.70;;;;;;;;;;5029933;28;25108;-71
2023/12/16 07:50:39;;;;;;;28.60;6.95;;;;;;;;;;5033224;28;25104;-70
2023/12/16 07:53:05;;;;;;;27.95;7.75;;;;;;;;;;5028442;28;25101;-71
2023/12/16 07:55:31;;;;;;;28.85;8.25;;;;;;;;;;5025435;28;25056;-71
2023/12/16 07:57:57;;;;;;;32.55;7.82;;;;;;;;;;5035909;28;25060;-71
2023/12/16 08:00:23;;;;;;;33.13;9.38;;;;;;;;;;5032603;28;25079;-70
2023/12/16 08:02:49;;;;;;;32.63;7.72;;;;;;;;;;5034906;28;25130;-73
2023/12/16 08:05:16;;;;;;;30.75;7.72;;;;;;;;;;5028015;28;25071;-71
2023/12/16 08:07:45;;;;;;;34.97;9.02;;;;;;;;;;5031297;28;25074;-70
2023/12/16 08:10:11;;;;;;;27.48;8.00;;;;;;;;;;5033117;28;25070;-70
2023/12/16 08:12:37;;;;;;;31.45;8.40;;;;;;;;;;5034456;28;25058;-70
2023/12/16 08:15:04;;;;;;;36.35;8.13;;;;;;;;;;5033803;28;25072;-71
2023/12/16 08:17:30;;;;;;;31.23;8.82;;;;;;;;;;5034462;28;25046;-69
2023/12/16 08:19:56;;;;;;;28.80;8.27;;;;;;;;;;5032572;28;25048;-71
2023/12/16 08:22:22;;;;;;;27.85;7.97;;;;;;;;;;5033027;28;25068;-72
2023/12/16 08:24:49;;;;;;;29.75;8.80;;;;;;;;;;5034423;28;25081;-71
2023/12/16 08:27:15;;;;;;;30.55;8.18;;;;;;;;;;5032289;28;25050;-71
2023/12/16 08:29:44;;;;;;;27.58;8.30;;;;;;;;;;5034600;28;25149;-70
2023/12/16 08:32:10;;;;;;;30.95;9.65;;;;;;;;;;5028723;28;25058;-72
2023/12/16 08:34:36;;;;;;;34.45;10.00;;;;;;;;;;5025719;28;25097;-69
2023/12/16 08:37:02;;;;;;;39.53;10.25;;;;;;;;;;5031034;28;25066;-71
2023/12/16 08:39:28;;;;;;;30.65;10.10;;;;;;;;;;5032928;28;25078;-71
2023/12/16 08:41:54;;;;;;;31.98;10.55;;;;;;;;;;5033290;28;25077;-71
2023/12/16 08:44:20;;;;;;;39.83;10.18;;;;;;;;;;5031620;28;25062;-69
2023/12/16 08:46:46;;;;;;;35.83;10.15;;;;;;;;;;5032353;28;25051;-70
2023/12/16 08:49:12;;;;;;;37.97;10.30;;;;;;;;;;5033334;28;25077;-70
2023/12/16 08:51:38;;;;;;;30.00;9.40;;;;;;;;;;5028765;28;25138;-69
2023/12/16 08:54:04;;;;;;;29.60;10.18;;;;;;;;;;5027144;28;25048;-70
2023/12/16 08:56:30;;;;;;;30.77;9.90;;;;;;;;;;5034310;28;25147;-70
2023/12/16 08:58:56;;;;;;;29.10;9.82;;;;;;;;;;5027843;28;25106;-70
2023/12/16 09:01:23;;;;;;;30.08;9.88;;;;;;;;;;5033140;28;25056;-70
2023/12/16 09:03:49;;;;;;;46.60;10.93;;;;;;;;;;5033620;28;25104;-70
2023/12/16 09:06:15;;;;;;;34.67;12.68;;;;;;;;;;5033513;28;25103;-70
2023/12/16 09:08:41;;;;;;;30.85;11.00;;;;;;;;;;5021338;28;25076;-69
2023/12/16 09:11:07;;;;;;;52.20;11.88;;;;;;;;;;5030419;28;25118;-70
2023/12/16 09:13:33;;;;;;;27.98;11.68;;;;;;;;;;5030399;28;25102;-72
2023/12/16 09:15:59;;;;;;;33.97;11.70;;;;;;;;;;5030902;28;25095;-73
2023/12/16 09:18:25;;;;;;;31.38;13.20;;;;;;;;;;5027331;28;25097;-70
2023/12/16 09:20:51;;;;;;;34.80;13.43;;;;;;;;;;5033892;28;25081;-69
2023/12/16 09:23:17;;;;;;;53.45;15.38;;;;;;;;;;5030470;28;25146;-68
2023/12/16 09:25:43;;;;;;;51.05;14.48;;;;;;;;;;5028339;28;25080;-70
2023/12/16 09:28:09;;;;;;;37.65;14.65;;;;;;;;;;5028527;28;25073;-70
2023/12/16 09:30:35;;;;;;;37.10;15.98;;;;;;;;;;5032956;28;25063;-72
2023/12/16 09:33:01;;;;;;;39.45;15.02;;;;;;;;;;5032869;28;25073;-71
2023/12/16 09:35:27;;;;;;;43.65;16.00;;;;;;;;;;5029176;28;25070;-69
2023/12/16 09:37:53;;;;;;;39.78;15.50;;;;;;;;;;5028045;28;25119;-69
2023/12/16 09:40:19;;;;;;;32.17;15.73;;;;;;;;;;5034619;28;25061;-70
2023/12/16 09:42:48;;;;;;;40.15;14.85;;;;;;;;;;5030256;28;25080;-69
2023/12/16 09:45:15;;;;;;;37.47;17.38;;;;;;;;;;5034567;28;25082;-70
2023/12/16 09:47:41;;;;;;;38.25;17.40;;;;;;;;;;5031995;28;25132;-70
2023/12/16 09:50:09;;;;;;;44.63;18.38;;;;;;;;;;5033474;28;25071;-70
2023/12/16 09:52:35;;;;;;;46.60;18.48;;;;;;;;;;5030219;28;25062;-70
2023/12/16 09:55:01;;;;;;;36.80;19.30;;;;;;;;;;5026512;28;25098;-70
2023/12/16 09:57:34;;;;;;;39.70;17.92;;;;;;;;;;5023193;28;25090;-70
2023/12/16 10:00:00;;;;;;;36.80;17.40;;;;;;;;;;5032501;28;25054;-70
2023/12/16 10:02:29;;;;;;;35.92;16.95;;;;;;;;;;5034641;28;25049;-70
2023/12/16 10:04:56;;;;;;;42.30;17.70;;;;;;;;;;5032868;28;25072;-70
2023/12/16 10:07:22;;;;;;;47.13;17.25;;;;;;;;;;5033585;28;25072;-70
2023/12/16 10:09:48;;;;;;;47.92;19.10;;;;;;;;;;5031770;28;25094;-73
2023/12/16 10:12:14;;;;;;;49.47;18.65;;;;;;;;;;5026484;28;25076;-70
2023/12/16 10:14:47;;;;;;;53.35;19.40;;;;;;;;;;5024851;28;25065;-72
2023/12/16 10:17:14;;;;;;;45.00;20.67;;;;;;;;;;5029051;28;25050;-70
2023/12/16 10:19:42;;;;;;;44.72;21.02;;;;;;;;;;5034189;28;25072;-71
2023/12/16 10:22:08;;;;;;;55.88;22.05;;;;;;;;;;5028084;28;25064;-69
2023/12/16 10:24:34;;;;;;;51.00;22.27;;;;;;;;;;5028314;28;25070;-70
2023/12/16 10:27:02;;;;;;;56.78;21.48;;;;;;;;;;5031039;28;25107;-71
2023/12/16 10:29:28;;;;;;;45.75;22.15;;;;;;;;;;5037053;28;25060;-71
2023/12/16 10:31:54;;;;;;;46.72;20.95;;;;;;;;;;5031724;28;25117;-70
2023/12/16 10:34:20;;;;;;;38.58;21.60;;;;;;;;;;5030555;28;25072;-71
2023/12/16 10:36:46;;;;;;;49.88;22.92;;;;;;;;;;5035483;28;25075;-70
2023/12/16 10:39:13;;;;;;;54.00;24.35;;;;;;;;;;5037979;28;25089;-69
2023/12/16 10:41:39;;;;;;;56.53;23.95;;;;;;;;;;5032176;28;25097;-69
2023/12/16 10:44:05;;;;;;;60.05;25.95;;;;;;;;;;5028860;28;25091;-70
2023/12/16 10:46:35;;;;;;;53.83;26.05;;;;;;;;;;5026544;28;25139;-69
2023/12/16 10:49:01;;;;;;;46.00;25.70;;;;;;;;;;5034153;28;25072;-69
2023/12/16 10:51:30;;;;;;;61.83;27.10;;;;;;;;;;5036371;28;25080;-70
2023/12/16 10:54:13;;;;;;;50.45;26.00;;;;;;;;;;5033182;28;25088;-71
2023/12/16 10:56:43;;;;;;;51.35;27.88;;;;;;;;;;5035513;28;25106;-72
2023/12/16 10:59:29;;;;;;;42.63;26.25;;;;;;;;;;5034097;28;25136;-71
2023/12/16 11:01:57;;;;;;;55.45;30.13;;;;;;;;;;5035394;28;25070;-71
2023/12/16 11:04:29;;;;;;;59.38;31.08;;;;;;;;;;5037200;28;25065;-71
2023/12/16 11:06:58;;;;;;;53.08;32.17;;;;;;;;;;5036967;28;25101;-70
2023/12/16 11:09:24;;;;;;;63.85;30.92;;;;;;;;;;5035227;28;25058;-70
2023/12/16 11:11:50;;;;;;;50.90;31.08;;;;;;;;;;5037633;28;25054;-72
2023/12/16 11:14:17;;;;;;;63.67;35.42;;;;;;;;;;5035559;28;25079;-71
2023/12/16 11:17:08;;;;;;;65.95;34.92;;;;;;;;;;5034277;28;25076;-70
2023/12/16 11:19:42;;;;;;;60.92;34.40;;;;;;;;;;5033691;28;25117;-71
2023/12/16 11:22:10;;;;;;;55.83;34.65;;;;;;;;;;5037758;28;25068;-70
2023/12/16 11:24:39;;;;;;;49.33;32.30;;;;;;;;;;5032405;28;25146;-71
2023/12/16 11:27:06;;;;;;;60.28;34.22;;;;;;;;;;5032971;28;25070;-71
2023/12/16 11:29:32;;;;;;;65.57;35.20;;;;;;;;;;5036205;28;25078;-71
2023/12/16 11:32:00;;;;;;;57.05;35.20;;;;;;;;;;5034196;28;25057;-71
2023/12/16 11:34:42;;;;;;;60.50;35.05;;;;;;;;;;5032671;28;25101;-70
2023/12/16 11:37:08;;;;;;;61.25;37.28;;;;;;;;;;5029762;28;25053;-71
2023/12/16 11:39:38;;;;;;;59.22;38.17;;;;;;;;;;5031656;28;25067;-70
2023/12/16 11:42:04;;;;;;;57.45;34.38;;;;;;;;;;5046693;28;25065;-68
2023/12/16 11:44:49;;;;;;;53.63;35.10;;;;;;;;;;5034275;28;25081;-70
2023/12/16 11:47:19;;;;;;;47.83;32.00;;;;;;;;;;5032058;28;25073;-71
2023/12/16 11:49:45;;;;;;;43.88;31.73;;;;;;;;;;5035730;28;25063;-71
2023/12/16 11:52:10;;;;;;;46.05;34.10;;;;;;;;;;5031980;28;25092;-71
2023/12/16 11:54:36;;;;;;;47.63;32.47;;;;;;;;;;5035004;28;25054;-71
2023/12/16 11:57:02;;;;;;;42.58;32.53;;;;;;;;;;5034385;28;25132;-71
2023/12/16 11:59:28;;;;;;;40.88;32.58;;;;;;;;;;5038663;28;25062;-71
2023/12/16 12:01:54;;;;;;;38.45;32.35;;;;;;;;;;5042497;28;25073;-72
2023/12/16 12:04:20;;;;;;;53.28;34.00;;;;;;;;;;5044618;28;25090;-71
2023/12/16 12:06:46;;;;;;;40.50;32.67;;;;;;;;;;5041821;28;25089;-74
2023/12/16 12:09:12;;;;;;;39.67;31.02;;;;;;;;;;5040062;28;25050;-74
2023/12/16 12:11:38;;;;;;;37.35;32.25;;;;;;;;;;5039512;28;25058;-71
2023/12/16 12:14:04;;;;;;;45.40;33.00;;;;;;;;;;5035899;28;25077;-73
2023/12/16 12:16:31;;;;;;;37.00;30.10;;;;;;;;;;5034974;28;25080;-70
2023/12/16 12:18:57;;;;;;;34.78;29.52;;;;;;;;;;5035866;28;25079;-73
2023/12/16 12:21:23;;;;;;;43.53;32.47;;;;;;;;;;5038481;28;25073;-72
2023/12/16 12:23:49;;;;;;;37.47;30.80;;;;;;;;;;5040397;28;25103;-73
2023/12/16 12:26:19;;;;;;;45.40;31.55;;;;;;;;;;5034509;28;25058;-71
2023/12/16 12:28:55;;;;;;;42.83;32.17;;;;;;;;;;5031469;28;25081;-71
2023/12/16 12:31:21;;;;;;;42.95;32.17;;;;;;;;;;5034025;28;25066;-72
2023/12/16 12:33:50;;;;;;;35.08;30.60;;;;;;;;;;5032955;28;25069;-71
2023/12/16 12:36:16;;;;;;;37.40;31.33;;;;;;;;;;5034112;28;25063;-72
2023/12/16 12:38:45;;;;;;;37.47;31.60;;;;;;;;;;5034393;28;25062;-72
2023/12/16 12:41:15;;;;;;;33.28;29.75;;;;;;;;;;5038908;28;25065;-72
2023/12/16 12:43:41;;;;;;;32.70;29.35;;;;;;;;;;5032436;28;25080;-72
2023/12/16 12:46:12;;;;;;;33.72;30.15;;;;;;;;;;5031942;28;25065;-71
2023/12/16 12:48:38;;;;;;;32.30;29.10;;;;;;;;;;5032518;28;25063;-70
2023/12/16 12:51:08;;;;;;;33.67;29.13;;;;;;;;;;5030180;28;25053;-72
2023/12/16 12:53:35;;;;;;;37.15;30.55;;;;;;;;;;5029411;28;25065;-74
2023/12/16 12:56:01;;;;;;;34.47;31.05;;;;;;;;;;5032807;28;25045;-73
2023/12/16 12:58:29;;;;;;;32.90;29.77;;;;;;;;;;5031289;28;25154;-72
2023/12/16 13:00:56;;;;;;;32.90;29.70;;;;;;;;;;5034745;28;25053;-72
2023/12/16 13:03:22;;;;;;;34.15;30.50;;;;;;;;;;5031245;28;25116;-73
2023/12/16 13:05:49;;;;;;;35.30;31.70;;;;;;;;;;5034719;28;25179;-72
2023/12/16 13:08:15;;;;;;;34.80;30.52;;;;;;;;;;5030407;28;25152;-74
2023/12/16 13:10:41;;;;;;;33.78;30.50;;;;;;;;;;5032687;28;25084;-72
2023/12/16 13:13:07;;;;;;;35.40;31.80;;;;;;;;;;5027428;28;25157;-72
2023/12/16 13:15:33;;;;;;;32.92;29.52;;;;;;;;;;5029959;28;25074;-72
2023/12/16 13:17:59;;;;;;;32.38;29.23;;;;;;;;;;5033496;28;25050;-70
2023/12/16 13:20:27;;;;;;;32.13;27.85;;;;;;;;;;5030852;28;25071;-73
2023/12/16 13:22:53;;;;;;;30.88;27.63;;;;;;;;;;5033715;28;25060;-73
2023/12/16 13:25:18;;;;;;;30.20;27.40;;;;;;;;;;5033977;28;25077;-71
2023/12/16 13:27:44;;;;;;;29.73;27.13;;;;;;;;;;5032485;28;25086;-71
2023/12/16 13:30:11;;;;;;;32.78;29.38;;;;;;;;;;5030019;28;25068;-72
2023/12/16 13:32:38;;;;;;;33.33;29.77;;;;;;;;;;5030969;28;25076;-73
2023/12/16 13:35:04;;;;;;;31.42;28.20;;;;;;;;;;5023747;28;25109;-72
2023/12/16 13:37:30;;;;;;;29.38;26.27;;;;;;;;;;5033584;28;25071;-74
2023/12/16 13:39:57;;;;;;;28.80;26.33;;;;;;;;;;5030060;28;25046;-72
2023/12/16 13:42:23;;;;;;;29.77;26.70;;;;;;;;;;5034143;28;25077;-73
2023/12/16 13:44:49;;;;;;;30.02;27.23;;;;;;;;;;5029735;28;25128;-72
2023/12/16 13:47:16;;;;;;;34.08;29.00;;;;;;;;;;5032542;28;25093;-72
2023/12/16 13:49:42;;;;;;;31.77;28.55;;;;;;;;;;5028474;28;25070;-71
2023/12/16 13:52:08;;;;;;;31.13;28.08;;;;;;;;;;5027985;28;25143;-72
2023/12/16 13:54:34;;;;;;;30.92;27.67;;;;;;;;;;5029305;28;25068;-74
2023/12/16 13:57:01;;;;;;;31.63;28.23;;;;;;;;;;5031134;28;25071;-72
2023/12/16 13:59:27;;;;;;;32.63;28.92;;;;;;;;;;5030463;28;25092;-73
2023/12/16 14:01:53;;;;;;;28.58;25.55;;;;;;;;;;5033158;28;25057;-73
2023/12/16 14:04:20;;;;;;;32.95;29.63;;;;;;;;;;5033331;28;25082;-71
2023/12/16 14:06:46;;;;;;;33.35;30.00;;;;;;;;;;5032399;28;25059;-72
2023/12/16 14:09:12;;;;;;;35.00;29.35;;;;;;;;;;5030930;28;25066;-72
2023/12/16 14:11:38;;;;;;;35.75;30.77;;;;;;;;;;5031119;28;25067;-73
2023/12/16 14:14:05;;;;;;;33.35;29.92;;;;;;;;;;5034605;28;25089;-71
2023/12/16 14:16:30;;;;;;;35.70;32.17;;;;;;;;;;5030512;28;25083;-72
2023/12/16 14:18:56;;;;;;;33.55;29.95;;;;;;;;;;5031257;28;25073;-72
2023/12/16 14:21:24;;;;;;;38.33;30.80;;;;;;;;;;5029772;28;25070;-72